createdAt,value
2023-05-22T00:01:30.056Z,30.92
2023-05-22T00:03:57.024Z,29.92
2023-05-22T00:06:28.763Z,27.98
2023-05-22T00:08:55.282Z,28.83
2023-05-22T00:11:22.859Z,30.45
2023-05-22T00:13:49.264Z,30.80
2023-05-22T00:16:15.720Z,28.52
2023-05-22T00:18:42.317Z,30.88
2023-05-22T00:21:09.544Z,31.35
2023-05-22T00:23:38.610Z,31.65
2023-05-22T00:26:05.323Z,31.70
2023-05-22T00:28:32.156Z,32.33
2023-05-22T00:30:58.582Z,32.17
2023-05-22T00:33:26.078Z,30.42
2023-05-22T00:35:54.551Z,32.85
2023-05-22T00:38:32.640Z,34.95
2023-05-22T00:41:00.005Z,33.97
2023-05-22T00:43:26.952Z,33.97
2023-05-22T00:45:54.474Z,33.25
2023-05-22T00:48:21.512Z,32.35
2023-05-22T00:50:48.843Z,33.22
2023-05-22T00:53:15.984Z,34.17
2023-05-22T00:55:46.456Z,34.40
2023-05-22T00:58:19.299Z,35.05
2023-05-22T01:00:48.585Z,36.72
2023-05-22T01:03:15.663Z,34.08
2023-05-22T01:05:43.785Z,33.42
2023-05-22T01:08:12.016Z,37.75
2023-05-22T01:10:39.287Z,31.67
2023-05-22T01:13:25.238Z,35.47
2023-05-22T01:16:10.868Z,36.22
2023-05-22T01:18:58.779Z,35.88
2023-05-22T01:21:30.419Z,37.78
2023-05-22T01:24:16.145Z,37.63
2023-05-22T01:26:50.030Z,37.85
2023-05-22T01:29:29.040Z,36.95
2023-05-22T01:31:57.541Z,36.50
2023-05-22T01:34:31.468Z,39.00
2023-05-22T01:36:58.965Z,37.83
2023-05-22T01:39:25.866Z,38.42
2023-05-22T01:41:54.191Z,39.60
2023-05-22T01:44:21.727Z,37.22
2023-05-22T01:46:48.384Z,39.70
2023-05-22T01:49:15.438Z,40.58
2023-05-22T01:51:58.965Z,38.00
2023-05-22T01:54:48.902Z,37.30
2023-05-22T01:57:22.138Z,38.63
2023-05-22T01:59:51.065Z,36.05
2023-05-22T02:02:18.461Z,40.58
2023-05-22T02:05:04.472Z,42.35
2023-05-22T02:07:34.017Z,38.25
2023-05-22T02:10:01.215Z,41.42
2023-05-22T02:12:27.806Z,40.42
2023-05-22T02:14:54.320Z,40.40
2023-05-22T02:17:21.966Z,39.65
2023-05-22T02:19:48.420Z,38.70
2023-05-22T02:22:15.028Z,38.83
2023-05-22T02:24:43.003Z,38.67
2023-05-22T02:27:09.703Z,43.40
2023-05-22T02:29:36.375Z,41.95
2023-05-22T02:32:03.042Z,43.63
2023-05-22T02:34:31.658Z,49.28
2023-05-22T02:36:59.818Z,51.22
2023-05-22T02:39:27.041Z,48.53
2023-05-22T02:41:54.197Z,48.65
2023-05-22T02:44:20.975Z,45.97
2023-05-22T02:46:47.733Z,45.22
2023-05-22T02:49:14.555Z,53.63
2023-05-22T02:51:41.036Z,47.72
2023-05-22T02:54:07.414Z,47.42
2023-05-22T02:56:33.817Z,51.72
2023-05-22T02:59:00.269Z,53.75
2023-05-22T03:01:26.759Z,53.25
2023-05-22T03:03:55.099Z,49.78
2023-05-22T03:06:21.962Z,52.20
2023-05-22T03:08:48.746Z,58.33
2023-05-22T03:11:15.370Z,59.47
2023-05-22T03:13:41.872Z,67.32
2023-05-22T03:16:08.522Z,60.15
2023-05-22T03:18:38.917Z,60.95
2023-05-22T03:21:05.373Z,48.42
2023-05-22T03:23:32.116Z,50.03
2023-05-22T03:26:00.775Z,46.78
2023-05-22T03:28:31.784Z,55.15
2023-05-22T03:30:59.407Z,51.28
2023-05-22T03:33:32.783Z,59.30
2023-05-22T03:35:59.396Z,71.13
2023-05-22T03:38:26.448Z,58.40
2023-05-22T03:40:52.921Z,63.03
2023-05-22T03:43:19.658Z,50.38
2023-05-22T03:45:46.121Z,59.50
2023-05-22T03:48:12.760Z,52.25
2023-05-22T03:50:39.414Z,47.75
2023-05-22T03:53:06.001Z,70.07
2023-05-22T03:55:32.553Z,45.50
2023-05-22T03:57:58.955Z,58.92
2023-05-22T04:00:26.970Z,48.40
2023-05-22T04:02:56.852Z,51.85
2023-05-22T04:05:24.446Z,62.50
2023-05-22T04:07:50.977Z,60.60
2023-05-22T04:10:17.378Z,54.45
2023-05-22T04:12:43.877Z,47.75
2023-05-22T04:15:12.913Z,56.70
2023-05-22T04:17:39.957Z,56.42
2023-05-22T04:20:07.093Z,44.63
2023-05-22T04:22:33.738Z,46.33
2023-05-22T04:25:00.347Z,42.28
2023-05-22T04:27:26.988Z,41.92
2023-05-22T04:29:53.702Z,41.83
2023-05-22T04:32:21.934Z,45.72
2023-05-22T04:34:50.969Z,39.33
2023-05-22T04:37:20.590Z,40.55
2023-05-22T04:39:48.387Z,35.88
2023-05-22T04:42:15.854Z,35.67
2023-05-22T04:44:42.673Z,33.38
2023-05-22T04:47:14.861Z,35.42
2023-05-22T04:49:42.512Z,34.35
2023-05-22T04:52:11.476Z,34.95
2023-05-22T04:54:38.817Z,36.30
2023-05-22T04:57:11.867Z,34.33
2023-05-22T04:59:39.207Z,33.67
2023-05-22T05:02:06.216Z,33.78
2023-05-22T05:04:33.061Z,32.20
2023-05-22T05:06:59.536Z,34.10
2023-05-22T05:09:26.542Z,34.33
2023-05-22T05:11:52.974Z,33.40
2023-05-22T05:14:19.796Z,33.10
2023-05-22T05:16:46.833Z,33.08
2023-05-22T05:19:13.457Z,28.15
2023-05-22T05:21:39.937Z,30.85
2023-05-22T05:24:06.585Z,30.75
2023-05-22T05:26:36.266Z,29.38
2023-05-22T05:29:02.857Z,28.15
2023-05-22T05:31:36.478Z,27.48
2023-05-22T05:34:25.617Z,27.02
2023-05-22T05:36:57.608Z,26.92
2023-05-22T05:39:26.045Z,26.35
2023-05-22T05:41:53.743Z,25.45
2023-05-22T05:44:20.150Z,27.25
2023-05-22T05:46:47.086Z,23.27
2023-05-22T05:49:19.593Z,25.73
2023-05-22T05:51:46.912Z,23.65
2023-05-22T05:54:15.385Z,24.38
2023-05-22T05:56:41.986Z,23.15
2023-05-22T05:59:10.046Z,24.60
2023-05-22T06:01:57.982Z,22.52
2023-05-22T06:04:31.637Z,23.20
2023-05-22T06:07:02.005Z,24.67
2023-05-22T06:09:41.542Z,22.70
2023-05-22T06:12:15.419Z,21.15
2023-05-22T06:14:45.634Z,20.80
2023-05-22T06:17:19.928Z,19.48
2023-05-22T06:19:47.361Z,18.08
2023-05-22T06:22:15.211Z,18.58
2023-05-22T06:24:43.953Z,17.98
2023-05-22T06:27:15.472Z,17.97
2023-05-22T06:29:42.031Z,17.63
2023-05-22T06:32:08.720Z,16.60
2023-05-22T06:34:36.933Z,16.00
2023-05-22T06:37:03.685Z,16.98
2023-05-22T06:39:35.871Z,16.60
2023-05-22T06:42:41.266Z,16.00
2023-05-22T06:45:27.209Z,17.50
2023-05-22T06:48:20.258Z,16.77
2023-05-22T06:51:03.119Z,16.55
2023-05-22T06:53:29.889Z,14.60
2023-05-22T06:55:57.107Z,14.18
2023-05-22T06:58:48.336Z,13.60
2023-05-22T07:01:15.174Z,13.60
2023-05-22T07:03:50.611Z,13.18
2023-05-22T07:06:33.597Z,13.25
2023-05-22T07:09:02.843Z,14.65
2023-05-22T07:11:29.633Z,14.32
2023-05-22T07:13:57.429Z,14.55
2023-05-22T07:16:25.392Z,14.50
2023-05-22T07:18:53.186Z,14.18
2023-05-22T07:21:19.786Z,13.57
2023-05-22T07:23:47.320Z,14.20
2023-05-22T07:26:13.765Z,14.25
2023-05-22T07:28:48.049Z,14.65
2023-05-22T07:31:14.626Z,14.38
2023-05-22T07:33:41.100Z,15.25
2023-05-22T07:36:07.697Z,15.57
2023-05-22T07:38:36.228Z,14.73
2023-05-22T07:41:04.856Z,14.73
2023-05-22T07:43:32.886Z,14.25
2023-05-22T07:46:01.009Z,15.40
2023-05-22T07:48:33.747Z,14.52
2023-05-22T07:51:00.311Z,13.90
2023-05-22T07:53:29.516Z,14.73
2023-05-22T07:56:01.879Z,14.00
2023-05-22T07:58:31.419Z,13.95
2023-05-22T08:00:58.923Z,14.38
2023-05-22T08:03:25.869Z,14.57
2023-05-22T08:05:54.940Z,14.00
2023-05-22T08:08:21.307Z,13.38
2023-05-22T08:11:02.845Z,13.60
2023-05-22T08:13:30.875Z,14.10
2023-05-22T08:16:00.225Z,13.48
2023-05-22T08:18:43.096Z,13.07
2023-05-22T08:21:10.781Z,13.75
2023-05-22T08:23:38.496Z,13.82
2023-05-22T08:26:06.077Z,13.35
2023-05-22T08:28:32.510Z,13.13
2023-05-22T08:30:58.834Z,13.98
2023-05-22T08:33:27.416Z,13.70
2023-05-22T08:35:54.845Z,12.70
2023-05-22T08:38:21.928Z,13.98
2023-05-22T08:40:49.856Z,13.60
2023-05-22T08:43:19.311Z,14.32
2023-05-22T08:45:47.189Z,13.68
2023-05-22T08:48:14.032Z,13.52
2023-05-22T08:50:42.153Z,13.48
2023-05-22T08:53:11.228Z,13.63
2023-05-22T08:55:37.825Z,15.07
2023-05-22T08:58:04.323Z,14.43
2023-05-22T09:00:30.914Z,13.85
2023-05-22T09:02:57.777Z,14.25
2023-05-22T09:05:28.872Z,15.75
2023-05-22T09:08:02.607Z,15.30
2023-05-22T09:10:32.058Z,13.63
2023-05-22T09:13:05.664Z,14.43
2023-05-22T09:15:33.172Z,14.60
2023-05-22T09:18:00.092Z,15.93
2023-05-22T09:20:26.929Z,15.60
2023-05-22T09:22:54.868Z,16.50
2023-05-22T09:25:21.741Z,17.70
2023-05-22T09:27:48.790Z,16.83
2023-05-22T09:30:18.020Z,16.58
2023-05-22T09:32:52.905Z,15.73
2023-05-22T09:35:20.171Z,17.20
2023-05-22T09:37:46.836Z,16.33
2023-05-22T09:40:14.229Z,15.43
2023-05-22T09:42:44.693Z,15.63
2023-05-22T09:45:11.304Z,15.88
2023-05-22T09:47:38.682Z,14.00
2023-05-22T09:50:10.303Z,14.80
2023-05-22T09:52:37.120Z,13.60
2023-05-22T09:55:04.675Z,13.77
2023-05-22T09:57:42.499Z,13.25
2023-05-22T10:00:12.326Z,13.20
2023-05-22T10:02:41.929Z,12.93
2023-05-22T10:05:09.913Z,12.45
2023-05-22T10:07:41.276Z,12.23
2023-05-22T10:12:37.123Z,11.23
2023-05-22T10:15:03.973Z,11.10
2023-05-22T10:17:31.676Z,10.88
2023-05-22T10:19:59.697Z,13.15
2023-05-22T10:22:27.566Z,10.10
2023-05-22T10:24:54.031Z,11.15
2023-05-22T10:27:20.415Z,11.80
2023-05-22T10:29:49.314Z,11.88
2023-05-22T10:32:25.686Z,11.88
2023-05-22T10:34:58.745Z,11.23
2023-05-22T10:37:37.296Z,12.57
2023-05-22T10:40:08.943Z,11.93
2023-05-22T10:42:37.116Z,12.40
2023-05-22T10:45:06.499Z,12.25
2023-05-22T10:47:33.714Z,12.75
2023-05-22T10:50:18.076Z,11.73
2023-05-22T10:52:45.596Z,13.13
2023-05-22T10:55:12.173Z,12.60
2023-05-22T10:57:39.440Z,13.27
2023-05-22T11:00:09.376Z,12.32
2023-05-22T11:02:40.209Z,11.68
2023-05-22T11:05:18.812Z,9.63
2023-05-22T11:07:46.108Z,10.30
2023-05-22T11:10:12.519Z,9.57
2023-05-22T11:12:38.972Z,10.30
2023-05-22T11:15:11.133Z,10.60
2023-05-22T11:17:51.347Z,8.80
2023-05-22T11:20:17.857Z,9.18
2023-05-22T11:22:50.847Z,9.18
2023-05-22T11:25:17.939Z,8.50
2023-05-22T11:27:46.446Z,8.90
2023-05-22T11:30:13.172Z,8.57
2023-05-22T11:32:41.227Z,7.88
2023-05-22T11:35:10.498Z,9.45
2023-05-22T11:37:39.972Z,9.18
2023-05-22T11:40:06.787Z,9.52
2023-05-22T11:42:33.502Z,10.40
2023-05-22T11:45:00.436Z,11.13
2023-05-22T11:47:27.022Z,11.73
2023-05-22T11:49:54.168Z,11.63
2023-05-22T11:52:23.250Z,10.45
2023-05-22T11:54:51.385Z,12.60
2023-05-22T11:57:18.859Z,14.38
2023-05-22T11:59:46.768Z,12.00
2023-05-22T12:02:13.674Z,11.95
2023-05-22T12:04:40.264Z,14.50
2023-05-22T12:07:08.576Z,12.50
2023-05-22T12:09:35.090Z,11.90
2023-05-22T12:12:01.488Z,10.75
2023-05-22T12:14:28.553Z,10.23
2023-05-22T12:16:55.516Z,8.90
2023-05-22T12:19:22.067Z,9.73
2023-05-22T12:21:51.657Z,8.98
2023-05-22T12:24:23.214Z,8.52
2023-05-22T12:26:50.704Z,8.63
2023-05-22T12:29:17.267Z,8.38
2023-05-22T12:31:51.304Z,8.23
2023-05-22T12:34:18.636Z,8.23
2023-05-22T12:36:46.191Z,7.53
2023-05-22T12:39:18.863Z,8.02
2023-05-22T12:41:45.905Z,7.88
2023-05-22T12:44:12.519Z,8.57
2023-05-22T12:46:38.989Z,8.38
2023-05-22T12:49:09.547Z,9.68
2023-05-22T12:51:36.117Z,10.85
2023-05-22T12:54:03.049Z,11.10
2023-05-22T12:56:29.724Z,10.00
2023-05-22T12:58:56.568Z,11.40
2023-05-22T13:01:24.411Z,11.05
2023-05-22T13:03:52.136Z,11.00
2023-05-22T13:06:19.374Z,11.23
2023-05-22T13:08:45.842Z,10.00
2023-05-22T13:11:16.459Z,11.10
2023-05-22T13:13:44.038Z,11.07
2023-05-22T13:16:12.165Z,11.05
2023-05-22T13:18:39.612Z,11.52
2023-05-22T13:21:06.184Z,11.15
2023-05-22T13:23:33.108Z,9.48
2023-05-22T13:26:02.085Z,10.38
2023-05-22T13:28:30.619Z,9.35
2023-05-22T13:30:58.596Z,9.13
2023-05-22T13:33:27.894Z,8.95
2023-05-22T13:35:54.934Z,8.77
2023-05-22T13:38:21.335Z,9.20
2023-05-22T13:40:48.612Z,9.73
2023-05-22T13:43:15.638Z,8.23
2023-05-22T13:45:43.032Z,8.10
2023-05-22T13:48:09.651Z,7.07
2023-05-22T13:50:37.597Z,7.20
2023-05-22T13:53:03.930Z,8.05
2023-05-22T13:55:31.550Z,7.53
2023-05-22T13:57:57.941Z,7.10
2023-05-22T14:00:24.449Z,6.82
2023-05-22T14:02:51.234Z,6.93
2023-05-22T14:05:26.411Z,7.00
2023-05-22T14:07:52.928Z,6.32
2023-05-22T14:10:19.965Z,6.80
2023-05-22T14:12:46.686Z,6.00
2023-05-22T14:15:13.252Z,6.07
2023-05-22T14:17:39.856Z,6.85
2023-05-22T14:20:07.723Z,6.50
2023-05-22T14:22:47.974Z,7.90
2023-05-22T14:25:22.918Z,6.28
2023-05-22T14:27:49.461Z,6.95
2023-05-22T14:30:17.097Z,7.78
2023-05-22T14:32:43.645Z,6.65
2023-05-22T14:35:10.110Z,7.68
2023-05-22T14:37:37.718Z,6.93
2023-05-22T14:40:06.704Z,7.13
2023-05-22T14:42:33.800Z,6.38
2023-05-22T14:45:08.815Z,6.93
2023-05-22T14:47:37.425Z,6.57
2023-05-22T14:52:40.990Z,6.35
2023-05-22T14:55:07.516Z,6.50
2023-05-22T14:57:35.935Z,6.63
2023-05-22T15:00:09.508Z,6.78
2023-05-22T15:02:37.277Z,4.97
2023-05-22T15:05:04.765Z,6.50
2023-05-22T15:07:43.034Z,6.10
2023-05-22T15:10:10.926Z,6.13
2023-05-22T15:12:37.399Z,5.45
2023-05-22T15:15:05.033Z,5.63
2023-05-22T15:17:32.591Z,4.60
2023-05-22T15:19:59.330Z,4.97
2023-05-22T15:22:26.904Z,3.95
2023-05-22T15:25:23.074Z,4.40
2023-05-22T15:27:49.503Z,4.07
2023-05-22T15:30:20.789Z,4.05
2023-05-22T15:32:49.723Z,4.88
2023-05-22T15:35:16.278Z,3.47
2023-05-22T15:37:42.815Z,3.47
2023-05-22T15:40:11.322Z,3.10
2023-05-22T15:42:39.360Z,3.50
2023-05-22T15:45:06.413Z,3.53
2023-05-22T15:47:33.744Z,3.20
2023-05-22T15:50:00.204Z,3.45
2023-05-22T15:52:26.713Z,2.53
2023-05-22T15:54:57.086Z,3.00
2023-05-22T15:57:23.677Z,3.05
2023-05-22T15:59:50.987Z,3.33
2023-05-22T16:02:18.312Z,2.97
2023-05-22T16:04:46.043Z,3.47
2023-05-22T16:07:12.598Z,3.15
2023-05-22T16:09:39.238Z,3.47
2023-05-22T16:12:06.980Z,3.55
2023-05-22T16:14:33.358Z,3.97
2023-05-22T16:17:00.938Z,3.10
2023-05-22T16:19:29.051Z,3.35
2023-05-22T16:21:56.403Z,3.55
2023-05-22T16:24:26.272Z,3.97
2023-05-22T16:26:54.950Z,4.38
2023-05-22T16:29:22.151Z,3.90
2023-05-22T16:31:52.831Z,3.53
2023-05-22T16:34:31.820Z,3.70
2023-05-22T16:37:01.196Z,3.75
2023-05-22T16:39:27.798Z,3.67
2023-05-22T16:41:56.286Z,4.32
2023-05-22T16:44:22.693Z,4.07
2023-05-22T16:46:51.420Z,4.00
2023-05-22T16:49:19.765Z,3.55
2023-05-22T16:51:47.896Z,3.35
2023-05-22T16:54:14.914Z,4.07
2023-05-22T16:56:42.470Z,3.80
2023-05-22T16:59:10.058Z,4.18
2023-05-22T17:01:37.220Z,4.30
2023-05-22T17:04:03.834Z,3.83
2023-05-22T17:06:30.286Z,4.68
2023-05-22T17:08:56.838Z,4.07
2023-05-22T17:11:25.944Z,3.75
2023-05-22T17:13:53.605Z,4.90
2023-05-22T17:16:21.469Z,4.68
2023-05-22T17:18:49.332Z,5.57
2023-05-22T17:21:17.406Z,5.22
2023-05-22T17:23:46.086Z,4.60
2023-05-22T17:26:15.221Z,5.00
2023-05-22T17:28:43.175Z,6.13
2023-05-22T17:31:09.518Z,5.30
2023-05-22T17:33:35.999Z,5.90
2023-05-22T17:36:02.399Z,4.90
2023-05-22T17:38:28.874Z,5.90
2023-05-22T17:40:56.312Z,5.90
2023-05-22T17:43:22.833Z,5.95
2023-05-22T17:45:53.349Z,5.65
2023-05-22T17:48:23.612Z,6.00
2023-05-22T17:50:50.528Z,5.85
2023-05-22T17:53:19.660Z,6.20
2023-05-22T17:55:47.829Z,5.35
2023-05-22T17:58:15.201Z,6.10
2023-05-22T18:00:42.369Z,6.55
2023-05-22T18:03:11.253Z,6.38
2023-05-22T18:05:39.064Z,6.38
2023-05-22T18:08:06.057Z,6.60
2023-05-22T18:10:32.729Z,7.15
2023-05-22T18:13:01.472Z,7.05
2023-05-22T18:15:29.549Z,7.15
2023-05-22T18:17:57.977Z,7.15
2023-05-22T18:20:24.464Z,7.75
2023-05-22T18:22:50.890Z,7.15
2023-05-22T18:25:17.952Z,6.72
2023-05-22T18:27:45.760Z,7.45
2023-05-22T18:30:12.469Z,6.65
2023-05-22T18:32:42.452Z,7.50
2023-05-22T18:35:10.939Z,7.13
2023-05-22T18:37:39.680Z,7.05
2023-05-22T18:40:07.729Z,6.97
2023-05-22T18:42:36.426Z,7.13
2023-05-22T18:45:03.021Z,7.10
2023-05-22T18:47:29.584Z,7.45
2023-05-22T18:49:55.974Z,7.00
2023-05-22T18:52:22.397Z,6.82
2023-05-22T18:54:48.874Z,7.47
2023-05-22T18:57:15.513Z,7.15
2023-05-22T18:59:43.265Z,8.02
2023-05-22T19:02:09.747Z,8.30
2023-05-22T19:04:36.297Z,7.40
2023-05-22T19:07:02.816Z,7.85
2023-05-22T19:09:29.269Z,7.55
2023-05-22T19:11:55.722Z,7.25
2023-05-22T19:14:22.073Z,6.88
2023-05-22T19:16:48.451Z,7.70
2023-05-22T19:19:15.041Z,7.88
2023-05-22T19:21:41.576Z,7.60
2023-05-22T19:24:07.989Z,7.72
2023-05-22T19:26:34.471Z,8.45
2023-05-22T19:29:00.952Z,8.02
2023-05-22T19:31:27.794Z,8.40
2023-05-22T19:33:54.618Z,8.50
2023-05-22T19:36:21.139Z,8.40
2023-05-22T19:38:47.849Z,8.55
2023-05-22T19:41:14.900Z,9.45
2023-05-22T19:43:41.296Z,9.15
2023-05-22T19:46:09.012Z,9.20
2023-05-22T19:48:36.147Z,9.15
2023-05-22T19:51:03.884Z,10.20
2023-05-22T19:53:32.344Z,10.75
2023-05-22T19:55:58.850Z,9.90
2023-05-22T19:58:25.663Z,10.57
2023-05-22T20:00:53.452Z,11.27
2023-05-22T20:03:22.185Z,11.82
2023-05-22T20:05:51.223Z,11.75
2023-05-22T20:08:18.880Z,11.50
2023-05-22T20:10:47.349Z,11.05
2023-05-22T20:13:13.847Z,10.93
2023-05-22T20:15:41.371Z,10.40
2023-05-22T20:18:08.331Z,11.77
2023-05-22T20:20:36.178Z,11.25
2023-05-22T20:23:05.680Z,10.82
2023-05-22T20:25:32.187Z,11.27
2023-05-22T20:27:58.579Z,11.38
2023-05-22T20:30:29.555Z,10.85
2023-05-22T20:32:56.041Z,11.65
2023-05-22T20:35:22.485Z,10.93
2023-05-22T20:37:48.982Z,10.88
2023-05-22T20:40:18.511Z,9.40
2023-05-22T20:42:46.272Z,8.63
2023-05-22T20:45:16.156Z,7.60
2023-05-22T20:47:44.277Z,7.15
2023-05-22T20:50:19.827Z,7.47
2023-05-22T20:52:55.686Z,7.10
2023-05-22T20:55:52.642Z,6.88
2023-05-22T20:58:41.347Z,6.15
2023-05-22T21:01:08.115Z,5.72
2023-05-22T21:03:34.800Z,5.07
2023-05-22T21:06:01.242Z,4.88
2023-05-22T21:08:27.728Z,5.43
2023-05-22T21:10:54.981Z,5.53
2023-05-22T21:13:21.665Z,5.93
2023-05-22T21:15:48.334Z,5.68
2023-05-22T21:18:15.846Z,5.20
2023-05-22T21:20:42.378Z,5.00
2023-05-22T21:23:08.893Z,5.35
2023-05-22T21:25:35.402Z,5.32
2023-05-22T21:28:02.246Z,5.55
2023-05-22T21:30:28.582Z,5.68
2023-05-22T21:32:56.107Z,5.35
2023-05-22T21:35:25.430Z,4.03
2023-05-22T21:37:52.528Z,5.20
2023-05-22T21:40:18.963Z,5.05
2023-05-22T21:42:47.356Z,5.07
2023-05-22T21:45:14.221Z,5.72
2023-05-22T21:47:40.767Z,5.50
2023-05-22T21:50:07.433Z,5.32
2023-05-22T21:52:33.860Z,5.95
2023-05-22T21:55:02.609Z,5.22
2023-05-22T21:57:30.231Z,5.78
2023-05-22T21:59:56.639Z,4.97
2023-05-22T22:02:24.997Z,5.85
2023-05-22T22:04:51.501Z,5.55
2023-05-22T22:07:17.949Z,5.78
2023-05-22T22:09:44.301Z,5.45
2023-05-22T22:12:11.914Z,5.88
2023-05-22T22:14:39.354Z,5.82
2023-05-22T22:17:06.683Z,4.63
2023-05-22T22:19:34.313Z,6.00
2023-05-22T22:22:01.412Z,6.55
2023-05-22T22:24:28.014Z,6.30
2023-05-22T22:26:54.926Z,5.70
2023-05-22T22:29:21.373Z,6.57
2023-05-22T22:31:49.445Z,6.88
2023-05-22T22:34:15.959Z,6.85
2023-05-22T22:36:42.542Z,6.88
2023-05-22T22:39:08.931Z,6.57
2023-05-22T22:41:36.560Z,7.38
2023-05-22T22:44:04.450Z,8.38
2023-05-22T22:46:31.218Z,8.23
2023-05-22T22:48:59.261Z,8.02
2023-05-22T22:51:25.675Z,6.75
2023-05-22T22:53:53.207Z,9.05
2023-05-22T22:56:19.620Z,8.25
2023-05-22T22:58:45.985Z,9.07
2023-05-22T23:01:12.948Z,8.70
2023-05-22T23:03:40.652Z,7.75
2023-05-22T23:06:07.608Z,7.88
2023-05-22T23:08:36.825Z,8.43
2023-05-22T23:11:03.280Z,8.75
2023-05-22T23:13:31.220Z,7.32
2023-05-22T23:15:57.662Z,8.93
2023-05-22T23:18:24.252Z,8.43
2023-05-22T23:20:51.645Z,8.20
2023-05-22T23:23:18.066Z,8.75
2023-05-22T23:25:44.409Z,8.88
2023-05-22T23:28:11.891Z,9.05
2023-05-22T23:30:38.447Z,9.35
2023-05-22T23:33:06.139Z,7.82
2023-05-22T23:35:32.599Z,9.80
2023-05-22T23:37:59.143Z,9.88
2023-05-22T23:40:26.119Z,10.40
2023-05-22T23:42:52.656Z,10.20
2023-05-22T23:45:19.121Z,9.32
2023-05-22T23:47:45.622Z,9.38
2023-05-22T23:50:16.387Z,10.30
2023-05-22T23:52:42.782Z,9.18
2023-05-22T23:55:09.319Z,7.78
2023-05-22T23:57:35.756Z,7.38
